Time;durP1;ratioP1;P1;durP2;ratioP2;P2;SDS_P1;SDS_P2;PMS_P1;PMS_P2;Temp;Humidity;BMP_temperature;BMP_pressure;BME280_temperature;BME280_humidity;BME280_pressure;Samples;Min_cycle;Max_cycle;Signal;HPM_P1;HPM_P2
2023/04/06 06:08:38;;;;;;;19.02;13.00;;;;;;;4.71;48.14;100578.81;5607468;31;110549;-57
2023/04/06 06:11:43;;;;;;;22.17;14.73;;;;;;;4.71;48.14;100578.81;5589624;31;33202;-57
2023/04/06 06:14:46;;;;;;;22.67;13.25;;;;;;;4.40;48.07;100582.72;5582573;31;34012;-58
2023/04/06 06:17:50;;;;;;;19.83;12.95;;;;;;;4.42;47.93;100574.50;5590081;31;32591;-58
2023/04/06 06:20:52;;;;;;;20.00;12.90;;;;;;;4.51;47.99;100583.72;5596997;31;33339;-57
2023/04/06 06:23:56;;;;;;;21.65;12.93;;;;;;;4.55;46.92;100574.25;5593950;31;31783;-58
2023/04/06 06:26:59;;;;;;;19.80;12.88;;;;;;;4.62;51.48;100571.44;5585046;31;31721;-58
2023/04/06 06:30:02;;;;;;;19.52;12.57;;;;;;;5.04;46.34;100571.97;5590888;31;31704;-58
2023/04/06 06:33:05;;;;;;;17.62;12.82;;;;;;;5.03;46.76;100572.19;5602382;31;32515;-58
2023/04/06 06:36:09;;;;;;;19.02;12.70;;;;;;;5.20;63.80;100570.41;5602461;31;32586;-58
2023/04/06 06:39:12;;;;;;;16.27;10.60;;;;;;;5.55;73.39;100566.72;5602164;31;31700;-58
2023/04/06 06:42:14;;;;;;;18.55;11.77;;;;;;;5.63;48.83;100566.31;5585833;31;31698;-58
2023/04/06 06:45:17;;;;;;;20.95;12.88;;;;;;;5.52;44.76;100554.69;5582667;31;31712;-58
2023/04/06 06:48:20;;;;;;;15.93;12.27;;;;;;;5.36;45.47;100551.00;5582522;31;31994;-58
2023/04/06 06:51:22;;;;;;;17.15;10.95;;;;;;;5.50;44.14;100553.34;5582535;31;31878;-58
2023/04/06 06:54:25;;;;;;;16.87;11.18;;;;;;;5.52;43.83;100549.37;5582575;31;33506;-58
2023/04/06 06:57:27;;;;;;;16.33;10.35;;;;;;;5.67;60.59;100546.16;5582286;32;33653;-58
2023/04/06 07:00:30;;;;;;;14.35;9.23;;;;;;;5.98;49.40;100542.09;5581234;32;33434;-58
2023/04/06 07:03:33;;;;;;;12.07;8.55;;;;;;;6.07;41.56;100539.84;5582277;31;31945;-58
2023/04/06 07:06:36;;;;;;;13.18;8.75;;;;;;;5.40;40.45;100536.19;5582191;31;31813;-58
2023/04/06 07:09:38;;;;;;;13.27;9.10;;;;;;;5.59;40.38;100546.56;5582298;32;33625;-58
2023/04/06 07:12:41;;;;;;;13.02;8.60;;;;;;;5.68;40.88;100546.97;5582276;31;32715;-58
2023/04/06 07:15:43;;;;;;;13.93;8.68;;;;;;;5.80;41.90;100550.34;5582271;31;32529;-57
2023/04/06 07:18:46;;;;;;;15.30;9.07;;;;;;;5.56;39.95;100547.03;5574668;32;34353;-57
2023/04/06 07:21:49;;;;;;;14.85;9.23;;;;;;;5.62;53.07;100551.38;5569117;32;31780;-58
2023/04/06 07:24:51;;;;;;;17.73;9.57;;;;;;;5.80;47.95;100551.12;5569212;32;33385;-58
2023/04/06 07:27:54;;;;;;;16.70;9.82;;;;;;;5.50;40.61;100548.03;5568917;32;33541;-58
2023/04/06 07:30:57;;;;;;;13.15;8.63;;;;;;;5.64;41.93;100554.63;5569165;32;31845;-58
2023/04/06 07:33:59;;;;;;;14.27;9.90;;;;;;;5.82;44.31;100554.34;5569247;32;33640;-58
2023/04/06 07:37:02;;;;;;;15.50;9.82;;;;;;;5.84;40.06;100546.94;5568992;32;32711;-57
2023/04/06 07:40:06;;;;;;;13.68;9.07;;;;;;;5.58;42.52;100544.94;5569174;31;32948;-57
2023/04/06 07:43:08;;;;;;;14.87;10.13;;;;;;;5.64;41.88;100534.16;5568986;31;33041;-57
2023/04/06 07:46:11;;;;;;;16.37;9.63;;;;;;;5.89;42.52;100530.22;5568902;32;34354;-58
2023/04/06 07:49:13;;;;;;;15.32;9.45;;;;;;;5.82;39.17;100541.03;5568891;32;33657;-57
2023/04/06 07:52:16;;;;;;;14.05;8.75;;;;;;;5.57;39.48;100544.16;5569112;32;33599;-57
2023/04/06 07:55:20;;;;;;;15.50;9.15;;;;;;;5.38;39.73;100537.47;5568820;31;32073;-57
2023/04/06 07:58:22;;;;;;;15.65;8.70;;;;;;;5.65;45.19;100534.94;5571988;31;33594;-57
2023/04/06 08:01:25;;;;;;;13.43;8.95;;;;;;;5.85;40.97;100531.78;5579244;31;33471;-55
2023/04/06 08:04:27;;;;;;;11.02;8.23;;;;;;;5.79;39.68;100536.22;5588814;31;33693;-55
2023/04/06 08:07:29;;;;;;;16.33;9.05;;;;;;;5.56;43.89;100531.06;5584884;31;33754;-56
2023/04/06 08:10:34;;;;;;;18.00;9.32;;;;;;;5.77;43.45;100540.19;5571666;31;33505;-56
2023/04/06 08:13:36;;;;;;;13.62;9.18;;;;;;;5.74;39.86;100533.50;5578844;31;33549;-56
2023/04/06 08:16:38;;;;;;;13.80;8.98;;;;;;;5.62;39.86;100536.22;5582246;31;34356;-55
2023/04/06 08:19:44;;;;;;;15.10;9.88;;;;;;;5.97;40.27;100535.19;5588237;31;34014;-56
2023/04/06 08:22:46;;;;;;;14.98;9.93;;;;;;;5.84;39.51;100538.16;5583411;31;34306;-55
2023/04/06 08:25:48;;;;;;;18.37;10.18;;;;;;;5.54;41.72;100541.16;5586303;31;34375;-55
2023/04/06 08:28:51;;;;;;;16.92;9.85;;;;;;;5.37;40.54;100531.34;5584913;31;33555;-55
2023/04/06 08:31:53;;;;;;;14.65;10.05;;;;;;;5.27;42.50;100533.84;5572989;31;34377;-55
2023/04/06 08:34:55;;;;;;;15.23;9.73;;;;;;;5.36;41.29;100543.03;5575633;31;33634;-55
2023/04/06 08:37:58;;;;;;;16.73;10.05;;;;;;;5.64;44.96;100526.16;5575101;31;33581;-55
2023/04/06 08:41:06;;;;;;;14.23;9.35;;;;;;;5.90;40.97;100529.19;5577643;31;33385;-55
2023/04/06 08:44:09;;;;;;;13.60;9.63;;;;;;;6.16;42.31;100524.22;5578710;31;33579;-56
2023/04/06 08:47:12;;;;;;;15.07;9.75;;;;;;;5.96;43.10;100509.62;5577284;31;33047;-55
2023/04/06 08:50:16;;;;;;;14.50;10.02;;;;;;;5.96;41.28;100508.78;5572507;31;33693;-55
2023/04/06 08:53:20;;;;;;;17.23;10.13;;;;;;;5.96;45.00;100516.78;5579973;31;34410;-55
2023/04/06 08:56:27;;;;;;;15.73;9.90;;;;;;;6.03;40.29;100512.09;5569166;31;34318;-55
2023/04/06 08:59:30;;;;;;;15.82;9.90;;;;;;;5.83;39.53;100505.44;5568229;32;33642;-56
2023/04/06 09:02:32;;;;;;;16.12;10.07;;;;;;;6.07;42.55;100510.56;5568441;32;33732;-56
2023/04/06 09:05:35;;;;;;;15.48;10.93;;;;;;;6.12;42.52;100510.59;5568290;32;33665;-55
2023/04/06 09:08:40;;;;;;;14.73;9.55;;;;;;;6.58;49.00;100503.94;5568264;32;33525;-56
2023/04/06 09:11:49;;;;;;;14.52;9.75;;;;;;;6.68;39.85;100505.13;5568318;32;33695;-55
2023/04/06 09:14:52;;;;;;;14.15;10.02;;;;;;;6.70;39.58;100497.69;5568162;32;33626;-56
2023/04/06 09:17:55;;;;;;;14.85;9.63;;;;;;;6.66;38.76;100499.25;5568074;32;33611;-55
2023/04/06 09:20:59;;;;;;;11.35;8.48;;;;;;;6.80;39.27;100493.25;5568006;32;33686;-56
2023/04/06 09:24:03;;;;;;;12.05;8.55;;;;;;;6.72;38.84;100493.72;5568323;32;33623;-55
2023/04/06 09:27:05;;;;;;;13.50;8.80;;;;;;;6.73;44.28;100475.88;5567990;32;33661;-56
2023/04/06 09:30:13;;;;;;;14.20;9.15;;;;;;;6.99;37.51;100474.25;5568163;32;33618;-55
2023/04/06 09:33:23;;;;;;;13.93;8.77;;;;;;;7.80;61.10;100483.88;5568124;32;33606;-55
2023/04/06 09:36:34;;;;;;;12.68;8.35;;;;;;;7.98;58.25;100472.75;5567974;32;34253;-55
2023/04/06 09:39:36;;;;;;;13.62;9.32;;;;;;;7.94;39.74;100464.44;5567897;32;33784;-56
2023/04/06 09:42:45;;;;;;;14.18;8.27;;;;;;;7.90;38.77;100466.03;5567779;32;34374;-55
2023/04/06 09:45:47;;;;;;;11.18;8.48;;;;;;;8.40;51.54;100469.19;5568088;32;34262;-56
2023/04/06 09:48:51;;;;;;;11.45;8.27;;;;;;;8.48;49.24;100466.00;5567673;32;33895;-55
2023/04/06 09:51:59;;;;;;;14.30;8.52;;;;;;;8.18;39.42;100451.47;5568022;32;33885;-56
2023/04/06 09:55:04;;;;;;;12.57;8.70;;;;;;;7.82;36.48;100455.84;5567764;32;33705;-56
2023/04/06 09:58:09;;;;;;;13.25;8.48;;;;;;;7.90;36.88;100452.69;5567882;32;33616;-56
2023/04/06 10:01:15;;;;;;;13.20;9.07;;;;;;;7.84;38.93;100456.38;5567561;32;34238;-55
2023/04/06 10:04:24;;;;;;;12.60;8.43;;;;;;;7.76;36.78;100444.34;5567778;32;34319;-56
2023/04/06 10:07:26;;;;;;;11.12;8.50;;;;;;;8.07;42.22;100452.47;5566933;32;33696;-55
2023/04/06 10:10:30;;;;;;;14.52;9.32;;;;;;;8.28;37.51;100453.38;5567493;32;33095;-55
2023/04/06 10:13:32;;;;;;;14.93;8.48;;;;;;;8.15;37.00;100438.62;5566149;32;34287;-55
2023/04/06 10:16:35;;;;;;;12.77;8.35;;;;;;;8.42;42.05;100443.00;5567524;32;34289;-56
2023/04/06 10:19:51;;;;;;;15.05;9.55;;;;;;;8.51;36.57;100432.59;5567335;32;34057;-55
2023/04/06 10:23:07;;;;;;;13.90;8.73;;;;;;;8.17;34.96;100430.34;5567352;32;33456;-55
2023/04/06 10:26:20;;;;;;;13.17;8.10;;;;;;;7.96;35.23;100432.97;5567395;32;33337;-56
2023/04/06 10:29:22;;;;;;;11.27;7.78;;;;;;;7.84;35.19;100426.22;5567179;32;34430;-55
2023/04/06 10:32:36;;;;;;;11.77;8.10;;;;;;;7.98;36.35;100422.84;5567117;32;34363;-55
2023/04/06 10:35:38;;;;;;;13.43;8.13;;;;;;;8.53;40.27;100423.25;5567219;32;33233;-55
2023/04/06 10:38:42;;;;;;;11.50;7.78;;;;;;;8.53;38.90;100423.25;5566829;32;34290;-56
2023/04/06 10:41:47;;;;;;;11.43;7.75;;;;;;;8.55;35.56;100418.47;5567095;32;33607;-55
2023/04/06 10:44:50;;;;;;;10.45;7.37;;;;;;;8.51;36.71;100414.72;5572669;31;34289;-55
2023/04/06 10:47:53;;;;;;;12.63;7.43;;;;;;;8.48;35.85;100415.25;5586523;31;33649;-56
2023/04/06 10:50:56;;;;;;;10.85;7.72;;;;;;;8.28;33.86;100397.28;5586773;31;33332;-55
2023/04/06 10:53:59;;;;;;;11.85;7.30;;;;;;;8.21;35.44;100394.03;5588114;31;34334;-56
2023/04/06 10:57:01;;;;;;;10.90;8.00;;;;;;;8.36;35.31;100398.62;5589245;31;34256;-55
2023/04/06 11:00:05;;;;;;;11.82;8.00;;;;;;;8.50;35.69;100388.25;5589248;31;33183;-56
2023/04/06 11:03:08;;;;;;;10.80;7.47;;;;;;;8.38;35.53;100404.53;5584872;31;33731;-56
